sensor_id;sensor_type;location;lat;lon;timestamp;pressure;altitude;pressure_sealevel;temperature;humidity
71299;BME280;59083;47.974;21.722;2022-11-15T00:00:13;101070.19;;;2.72;100.00
71299;BME280;59083;47.974;21.722;2022-11-15T00:03:33;101071.16;;;2.71;100.00
71299;BME280;59083;47.974;21.722;2022-11-15T00:06:52;101072.09;;;2.70;100.00
71299;BME280;59083;47.974;21.722;2022-11-15T00:10:12;101076.53;;;2.70;100.00
71299;BME280;59083;47.974;21.722;2022-11-15T00:13:31;101061.00;;;2.67;100.00
71299;BME280;59083;47.974;21.722;2022-11-15T00:16:51;101057.75;;;2.63;100.00
71299;BME280;59083;47.974;21.722;2022-11-15T00:20:11;101060.16;;;2.66;100.00
71299;BME280;59083;47.974;21.722;2022-11-15T00:23:31;101061.59;;;2.70;100.00
71299;BME280;59083;47.974;21.722;2022-11-15T00:26:50;101048.44;;;2.59;100.00
71299;BME280;59083;47.974;21.722;2022-11-15T00:30:10;101042.22;;;2.71;100.00
71299;BME280;59083;47.974;21.722;2022-11-15T00:33:30;101042.22;;;2.71;100.00
71299;BME280;59083;47.974;21.722;2022-11-15T00:36:50;101036.94;;;2.71;100.00
71299;BME280;59083;47.974;21.722;2022-11-15T00:40:10;101031.22;;;2.66;100.00
71299;BME280;59083;47.974;21.722;2022-11-15T00:43:32;101031.91;;;2.46;100.00
71299;BME280;59083;47.974;21.722;2022-11-15T00:46:51;101024.16;;;2.56;100.00
71299;BME280;59083;47.974;21.722;2022-11-15T00:50:11;101033.50;;;2.48;100.00
71299;BME280;59083;47.974;21.722;2022-11-15T00:53:31;101036.47;;;2.55;100.00
71299;BME280;59083;47.974;21.722;2022-11-15T00:56:51;101024.38;;;2.30;100.00
71299;BME280;59083;47.974;21.722;2022-11-15T01:00:11;101018.44;;;2.51;100.00
71299;BME280;59083;47.974;21.722;2022-11-15T01:03:33;101024.28;;;2.43;100.00
71299;BME280;59083;47.974;21.722;2022-11-15T01:06:52;101027.63;;;2.56;100.00
71299;BME280;59083;47.974;21.722;2022-11-15T01:10:12;101023.31;;;2.55;100.00
71299;BME280;59083;47.974;21.722;2022-11-15T01:13:33;101026.06;;;2.65;100.00
71299;BME280;59083;47.974;21.722;2022-11-15T01:16:53;101023.19;;;2.68;100.00
71299;BME280;59083;47.974;21.722;2022-11-15T01:20:13;101017.91;;;2.68;100.00
71299;BME280;59083;47.974;21.722;2022-11-15T01:23:33;101006.59;;;2.56;100.00
71299;BME280;59083;47.974;21.722;2022-11-15T01:26:53;101001.81;;;2.50;100.00
71299;BME280;59083;47.974;21.722;2022-11-15T01:30:12;101005.12;;;2.52;100.00
71299;BME280;59083;47.974;21.722;2022-11-15T01:33:34;101002.97;;;2.57;100.00
71299;BME280;59083;47.974;21.722;2022-11-15T01:36:54;100999.28;;;2.48;100.00
71299;BME280;59083;47.974;21.722;2022-11-15T01:40:13;101000.84;;;2.51;100.00
71299;BME280;59083;47.974;21.722;2022-11-15T01:43:35;100997.72;;;2.57;100.00
71299;BME280;59083;47.974;21.722;2022-11-15T01:46:55;100992.81;;;2.53;100.00
71299;BME280;59083;47.974;21.722;2022-11-15T01:50:19;100983.38;;;2.61;100.00
71299;BME280;59083;47.974;21.722;2022-11-15T01:53:42;100986.72;;;2.63;100.00
71299;BME280;59083;47.974;21.722;2022-11-15T01:57:08;100995.06;;;2.68;100.00
71299;BME280;59083;47.974;21.722;2022-11-15T02:00:29;100990.78;;;2.78;100.00
71299;BME280;59083;47.974;21.722;2022-11-15T02:03:56;100983.38;;;2.72;100.00
71299;BME280;59083;47.974;21.722;2022-11-15T02:07:19;100985.41;;;2.58;100.00
71299;BME280;59083;47.974;21.722;2022-11-15T02:10:39;100975.22;;;2.75;100.00
71299;BME280;59083;47.974;21.722;2022-11-15T02:13:59;100975.22;;;2.75;100.00
71299;BME280;59083;47.974;21.722;2022-11-15T02:31:21;100968.31;;;2.52;100.00
71299;BME280;59083;47.974;21.722;2022-11-15T02:35:03;100958.28;;;2.46;100.00
71299;BME280;59083;47.974;21.722;2022-11-15T02:38:54;100957.91;;;2.39;100.00
71299;BME280;59083;47.974;21.722;2022-11-15T02:42:22;100964.50;;;2.45;100.00
71299;BME280;59083;47.974;21.722;2022-11-15T02:46:13;100961.84;;;2.45;100.00
71299;BME280;59083;47.974;21.722;2022-11-15T02:49:35;100962.13;;;2.42;100.00
71299;BME280;59083;47.974;21.722;2022-11-15T02:52:57;100965.34;;;2.34;100.00
71299;BME280;59083;47.974;21.722;2022-11-15T02:56:16;100967.62;;;2.39;100.00
71299;BME280;59083;47.974;21.722;2022-11-15T03:07:53;100968.31;;;2.52;100.00
71299;BME280;59083;47.974;21.722;2022-11-15T03:11:16;100969.16;;;2.53;100.00
71299;BME280;59083;47.974;21.722;2022-11-15T03:14:43;100971.66;;;2.54;100.00
71299;BME280;59083;47.974;21.722;2022-11-15T03:18:16;100963.53;;;2.46;100.00
71299;BME280;59083;47.974;21.722;2022-11-15T03:21:40;100942.50;;;2.46;100.00
71299;BME280;59083;47.974;21.722;2022-11-15T03:25:03;100945.59;;;2.51;100.00
71299;BME280;59083;47.974;21.722;2022-11-15T03:32:13;100943.81;;;2.52;100.00
71299;BME280;59083;47.974;21.722;2022-11-15T03:35:39;100950.41;;;2.35;100.00
71299;BME280;59083;47.974;21.722;2022-11-15T03:39:05;100944.66;;;2.19;100.00
71299;BME280;59083;47.974;21.722;2022-11-15T03:42:30;100946.56;;;2.17;100.00
71299;BME280;59083;47.974;21.722;2022-11-15T03:46:09;100941.47;;;2.26;100.00
71299;BME280;59083;47.974;21.722;2022-11-15T03:49:34;100951.59;;;2.31;100.00
71299;BME280;59083;47.974;21.722;2022-11-15T03:52:54;100943.97;;;2.28;100.00
71299;BME280;59083;47.974;21.722;2022-11-15T03:56:14;100941.34;;;2.28;100.00
71299;BME280;59083;47.974;21.722;2022-11-15T03:59:33;100942.66;;;2.33;100.00
71299;BME280;59083;47.974;21.722;2022-11-15T04:02:53;100944.19;;;2.25;100.00
71299;BME280;59083;47.974;21.722;2022-11-15T04:06:12;100941.34;;;2.28;100.00
71299;BME280;59083;47.974;21.722;2022-11-15T04:09:32;100935.94;;;2.29;100.00
71299;BME280;59083;47.974;21.722;2022-11-15T04:12:51;100932.72;;;2.37;100.00
71299;BME280;59083;47.974;21.722;2022-11-15T04:16:11;100932.47;;;2.40;100.00
71299;BME280;59083;47.974;21.722;2022-11-15T04:19:31;100930.81;;;2.39;100.00
71299;BME280;59083;47.974;21.722;2022-11-15T04:26:50;100916.34;;;2.33;100.00
71299;BME280;59083;47.974;21.722;2022-11-15T04:30:10;100928.41;;;2.36;100.00
71299;BME280;59083;47.974;21.722;2022-11-15T04:33:29;100914.81;;;2.20;100.00
71299;BME280;59083;47.974;21.722;2022-11-15T04:36:49;100911.22;;;2.21;100.00
71299;BME280;59083;47.974;21.722;2022-11-15T04:40:27;100908.31;;;2.35;100.00
71299;BME280;59083;47.974;21.722;2022-11-15T04:43:47;100905.22;;;2.30;100.00
71299;BME280;59083;47.974;21.722;2022-11-15T04:47:06;100900.09;;;2.17;100.00
71299;BME280;59083;47.974;21.722;2022-11-15T04:50:26;100892.84;;;2.10;100.00
71299;BME280;59083;47.974;21.722;2022-11-15T04:53:45;100901.41;;;2.12;100.00
71299;BME280;59083;47.974;21.722;2022-11-15T04:57:04;100900.09;;;2.17;100.00
71299;BME280;59083;47.974;21.722;2022-11-15T05:00:24;100895.09;;;2.14;100.00
71299;BME280;59083;47.974;21.722;2022-11-15T05:03:44;100896.16;;;2.23;100.00
71299;BME280;59083;47.974;21.722;2022-11-15T05:07:23;100888.25;;;2.23;100.00
71299;BME280;59083;47.974;21.722;2022-11-15T05:10:43;100892.34;;;2.16;100.00
71299;BME280;59083;47.974;21.722;2022-11-15T05:14:02;100890.78;;;2.24;100.00
71299;BME280;59083;47.974;21.722;2022-11-15T05:17:21;100878.47;;;2.25;100.00
71299;BME280;59083;47.974;21.722;2022-11-15T05:20:41;100885.16;;;2.18;100.00
71299;BME280;59083;47.974;21.722;2022-11-15T05:24:01;100886.47;;;2.12;100.00
71299;BME280;59083;47.974;21.722;2022-11-15T05:27:21;100894.00;;;2.05;100.00
71299;BME280;59083;47.974;21.722;2022-11-15T05:30:40;100894.72;;;2.07;100.00
71299;BME280;59083;47.974;21.722;2022-11-15T05:34:00;100895.69;;;2.18;100.00
71299;BME280;59083;47.974;21.722;2022-11-15T05:37:21;100890.19;;;2.21;100.00
71299;BME280;59083;47.974;21.722;2022-11-15T05:40:42;100890.19;;;2.21;100.00
71299;BME280;59083;47.974;21.722;2022-11-15T05:44:02;100885.16;;;2.18;100.00
71299;BME280;59083;47.974;21.722;2022-11-15T05:47:24;100894.25;;;2.14;100.00
71299;BME280;59083;47.974;21.722;2022-11-15T05:50:47;100896.41;;;2.08;100.00
71299;BME280;59083;47.974;21.722;2022-11-15T05:54:07;100886.12;;;2.17;100.00
71299;BME280;59083;47.974;21.722;2022-11-15T05:57:27;100889.84;;;2.14;100.00
71299;BME280;59083;47.974;21.722;2022-11-15T06:00:47;100892.84;;;2.10;100.00
71299;BME280;59083;47.974;21.722;2022-11-15T06:04:07;100891.16;;;2.08;100.00
71299;BME280;59083;47.974;21.722;2022-11-15T06:07:26;100889.94;;;2.24;100.00
71299;BME280;59083;47.974;21.722;2022-11-15T06:10:45;100880.50;;;2.32;100.00
71299;BME280;59083;47.974;21.722;2022-11-15T06:14:05;100898.28;;;2.29;100.00
71299;BME280;59083;47.974;21.722;2022-11-15T06:17:24;100886.84;;;2.19;100.00
71299;BME280;59083;47.974;21.722;2022-11-15T06:20:44;100886.00;;;2.18;100.00
71299;BME280;59083;47.974;21.722;2022-11-15T06:24:04;100896.88;;;2.25;100.00
71299;BME280;59083;47.974;21.722;2022-11-15T06:27:24;100898.16;;;2.41;100.00
71299;BME280;59083;47.974;21.722;2022-11-15T06:30:43;100903.31;;;2.32;100.00
71299;BME280;59083;47.974;21.722;2022-11-15T06:34:02;100898.66;;;2.35;100.00
71299;BME280;59083;47.974;21.722;2022-11-15T06:37:22;100881.81;;;2.38;100.00
71299;BME280;59083;47.974;21.722;2022-11-15T06:40:41;100883.47;;;2.39;100.00
71299;BME280;59083;47.974;21.722;2022-11-15T06:44:02;100887.06;;;2.38;100.00
71299;BME280;59083;47.974;21.722;2022-11-15T06:47:21;100873.41;;;2.44;100.00
71299;BME280;59083;47.974;21.722;2022-11-15T06:50:41;100890.69;;;2.15;100.00
71299;BME280;59083;47.974;21.722;2022-11-15T06:54:00;100895.91;;;2.37;100.00
71299;BME280;59083;47.974;21.722;2022-11-15T06:57:20;100898.75;;;2.45;100.00
71299;BME280;59083;47.974;21.722;2022-11-15T07:00:39;100892.00;;;2.63;100.00
71299;BME280;59083;47.974;21.722;2022-11-15T07:03:59;100900.31;;;2.79;100.00
71299;BME280;59083;47.974;21.722;2022-11-15T07:07:19;100904.50;;;2.82;100.00
71299;BME280;59083;47.974;21.722;2022-11-15T07:10:38;100899.88;;;2.74;100.00
71299;BME280;59083;47.974;21.722;2022-11-15T07:13:59;100897.72;;;2.68;100.00
71299;BME280;59083;47.974;21.722;2022-11-15T07:17:19;100901.22;;;2.58;100.00
71299;BME280;59083;47.974;21.722;2022-11-15T07:20:38;100899.28;;;2.71;100.00
71299;BME280;59083;47.974;21.722;2022-11-15T07:23:58;100888.34;;;2.55;100.00
71299;BME280;59083;47.974;21.722;2022-11-15T07:27:18;100897.56;;;2.49;100.00
71299;BME280;59083;47.974;21.722;2022-11-15T07:30:38;100888.19;;;2.67;100.00
71299;BME280;59083;47.974;21.722;2022-11-15T07:33:57;100877.66;;;2.67;100.00
71299;BME280;59083;47.974;21.722;2022-11-15T07:37:17;100883.22;;;2.42;100.00
71299;BME280;59083;47.974;21.722;2022-11-15T07:40:36;100865.03;;;2.50;100.00
71299;BME280;59083;47.974;21.722;2022-11-15T07:43:56;100857.19;;;2.39;100.00
71299;BME280;59083;47.974;21.722;2022-11-15T07:47:16;100858.19;;;2.59;100.00
71299;BME280;59083;47.974;21.722;2022-11-15T07:50:36;100854.66;;;2.37;100.00
71299;BME280;59083;47.974;21.722;2022-11-15T07:53:56;100854.03;;;2.56;100.00
71299;BME280;59083;47.974;21.722;2022-11-15T07:57:15;100864.69;;;2.75;100.00
71299;BME280;59083;47.974;21.722;2022-11-15T08:00:35;100859.28;;;2.88;100.00
71299;BME280;59083;47.974;21.722;2022-11-15T08:03:55;100851.31;;;2.99;100.00
71299;BME280;59083;47.974;21.722;2022-11-15T08:07:14;100848.56;;;3.01;100.00
71299;BME280;59083;47.974;21.722;2022-11-15T08:10:34;100842.28;;;3.33;100.00
71299;BME280;59083;47.974;21.722;2022-11-15T08:13:55;100842.75;;;3.18;100.00
71299;BME280;59083;47.974;21.722;2022-11-15T08:17:15;100847.28;;;3.16;100.00
71299;BME280;59083;47.974;21.722;2022-11-15T08:20:34;100843.87;;;3.25;100.00
71299;BME280;59083;47.974;21.722;2022-11-15T08:23:54;100841.34;;;3.44;100.00
71299;BME280;59083;47.974;21.722;2022-11-15T08:27:13;100846.09;;;3.50;100.00
71299;BME280;59083;47.974;21.722;2022-11-15T08:30:38;100852.00;;;3.63;100.00
71299;BME280;59083;47.974;21.722;2022-11-15T08:33:57;100841.78;;;3.70;100.00
71299;BME280;59083;47.974;21.722;2022-11-15T08:37:17;100847.13;;;3.99;100.00
71299;BME280;59083;47.974;21.722;2022-11-15T08:40:37;100822.72;;;3.97;100.00
71299;BME280;59083;47.974;21.722;2022-11-15T08:43:56;100849.12;;;4.16;100.00
71299;BME280;59083;47.974;21.722;2022-11-15T08:47:16;100852.12;;;4.32;100.00
71299;BME280;59083;47.974;21.722;2022-11-15T08:50:35;100866.41;;;4.30;100.00
71299;BME280;59083;47.974;21.722;2022-11-15T08:53:55;100851.66;;;4.27;100.00
71299;BME280;59083;47.974;21.722;2022-11-15T08:57:14;100859.75;;;4.35;100.00
71299;BME280;59083;47.974;21.722;2022-11-15T09:00:34;100848.09;;;4.47;100.00
71299;BME280;59083;47.974;21.722;2022-11-15T09:03:53;100839.66;;;4.53;100.00
71299;BME280;59083;47.974;21.722;2022-11-15T09:07:14;100834.22;;;4.65;100.00
71299;BME280;59083;47.974;21.722;2022-11-15T09:10:33;100817.00;;;4.80;100.00
71299;BME280;59083;47.974;21.722;2022-11-15T09:13:52;100813.25;;;4.73;100.00
71299;BME280;59083;47.974;21.722;2022-11-15T09:17:12;100813.69;;;4.78;100.00
71299;BME280;59083;47.974;21.722;2022-11-15T09:20:31;100812.81;;;5.06;100.00
71299;BME280;59083;47.974;21.722;2022-11-15T09:23:51;100819.22;;;4.84;100.00
71299;BME280;59083;47.974;21.722;2022-11-15T09:27:11;100817.81;;;5.09;100.00
71299;BME280;59083;47.974;21.722;2022-11-15T09:30:32;100815.31;;;5.17;100.00
71299;BME280;59083;47.974;21.722;2022-11-15T09:33:52;100820.03;;;5.14;100.00
71299;BME280;59083;47.974;21.722;2022-11-15T09:37:11;100798.34;;;5.10;100.00
71299;BME280;59083;47.974;21.722;2022-11-15T09:40:32;100794.75;;;5.11;100.00
71299;BME280;59083;47.974;21.722;2022-11-15T09:50:53;100772.50;;;5.51;100.00
71299;BME280;59083;47.974;21.722;2022-11-15T09:54:05;100763.78;;;5.40;100.00
71299;BME280;59083;47.974;21.722;2022-11-15T10:00:46;100730.56;;;5.65;100.00
71299;BME280;59083;47.974;21.722;2022-11-15T10:03:49;100730.09;;;5.70;100.00
71299;BME280;59083;47.974;21.722;2022-11-15T10:13:33;100741.72;;;5.87;100.00
71299;BME280;59083;47.974;21.722;2022-11-15T10:17:02;100727.03;;;6.02;100.00
71299;BME280;59083;47.974;21.722;2022-11-15T10:20:12;100717.59;;;6.17;100.00
71299;BME280;59083;47.974;21.722;2022-11-15T10:23:19;100712.16;;;6.18;99.49
71299;BME280;59083;47.974;21.722;2022-11-15T10:26:23;100701.56;;;6.18;99.90
71299;BME280;59083;47.974;21.722;2022-11-15T10:29:25;100714.25;;;6.33;99.52
71299;BME280;59083;47.974;21.722;2022-11-15T10:32:27;100712.63;;;6.32;100.00
71299;BME280;59083;47.974;21.722;2022-11-15T10:35:29;100707.31;;;6.32;99.97
71299;BME280;59083;47.974;21.722;2022-11-15T10:38:30;100696.75;;;6.32;100.00
71299;BME280;59083;47.974;21.722;2022-11-15T10:41:36;100694.69;;;6.26;100.00
71299;BME280;59083;47.974;21.722;2022-11-15T10:44:42;100696.34;;;6.27;99.49
71299;BME280;59083;47.974;21.722;2022-11-15T10:47:44;100699.16;;;6.43;100.00
71299;BME280;59083;47.974;21.722;2022-11-15T10:50:46;100714.19;;;6.25;100.00
71299;BME280;59083;47.974;21.722;2022-11-15T10:53:49;100701.47;;;6.28;99.52
71299;BME280;59083;47.974;21.722;2022-11-15T10:56:53;100679.47;;;6.28;98.94
71299;BME280;59083;47.974;21.722;2022-11-15T11:03:29;100678.22;;;6.57;99.05
71299;BME280;59083;47.974;21.722;2022-11-15T11:13:19;100687.03;;;7.10;95.87
71299;BME280;59083;47.974;21.722;2022-11-15T11:16:40;100675.09;;;7.14;94.76
71299;BME280;59083;47.974;21.722;2022-11-15T11:30:39;100641.84;;;6.85;97.54
71299;BME280;59083;47.974;21.722;2022-11-15T11:37:14;100630.53;;;6.75;96.84
71299;BME280;59083;47.974;21.722;2022-11-15T11:40:39;100604.53;;;6.79;97.02
71299;BME280;59083;47.974;21.722;2022-11-15T11:47:23;100607.44;;;6.93;97.18
71299;BME280;59083;47.974;21.722;2022-11-15T11:50:28;100599.50;;;6.93;97.16
71299;BME280;59083;47.974;21.722;2022-11-15T11:53:36;100605.28;;;6.89;97.64
71299;BME280;59083;47.974;21.722;2022-11-15T11:56:42;100620.91;;;7.08;98.03
71299;BME280;59083;47.974;21.722;2022-11-15T11:59:50;100605.97;;;7.41;97.62
71299;BME280;59083;47.974;21.722;2022-11-15T12:06:33;100594.41;;;7.50;94.45
71299;BME280;59083;47.974;21.722;2022-11-15T12:09:53;100594.44;;;7.66;94.34
71299;BME280;59083;47.974;21.722;2022-11-15T12:13:02;100587.81;;;7.62;94.14
71299;BME280;59083;47.974;21.722;2022-11-15T12:16:21;100590.91;;;7.58;94.05
71299;BME280;59083;47.974;21.722;2022-11-15T12:19:25;100576.19;;;7.55;95.39
71299;BME280;59083;47.974;21.722;2022-11-15T12:22:36;100565.22;;;7.58;95.25
71299;BME280;59083;47.974;21.722;2022-11-15T12:26:06;100564.56;;;7.48;95.18
71299;BME280;59083;47.974;21.722;2022-11-15T12:29:18;100563.91;;;7.54;95.21
71299;BME280;59083;47.974;21.722;2022-11-15T12:32:30;100562.59;;;7.66;95.26
71299;BME280;59083;47.974;21.722;2022-11-15T12:35:38;100554.97;;;7.71;95.70
71299;BME280;59083;47.974;21.722;2022-11-15T12:39:02;100558.47;;;7.72;95.45
71299;BME280;59083;47.974;21.722;2022-11-15T12:45:25;100554.97;;;8.04;95.04
71299;BME280;59083;47.974;21.722;2022-11-15T12:54:52;100533.41;;;8.15;93.05
71299;BME280;59083;47.974;21.722;2022-11-15T12:57:54;100520.12;;;8.15;92.97
71299;BME280;59083;47.974;21.722;2022-11-15T13:00:55;100505.53;;;8.19;92.12
71299;BME280;59083;47.974;21.722;2022-11-15T13:10:41;100515.69;;;7.83;93.46
71299;BME280;59083;47.974;21.722;2022-11-15T13:13:43;100521.16;;;7.89;93.68
71299;BME280;59083;47.974;21.722;2022-11-15T13:16:46;100522.63;;;7.92;93.62
71299;BME280;59083;47.974;21.722;2022-11-15T13:20:01;100516.00;;;7.88;94.00
71299;BME280;59083;47.974;21.722;2022-11-15T13:23:14;100518.19;;;7.84;94.04
71299;BME280;59083;47.974;21.722;2022-11-15T13:26:16;100520.34;;;7.89;93.96
71299;BME280;59083;47.974;21.722;2022-11-15T13:29:18;100517.53;;;7.91;93.70
71299;BME280;59083;47.974;21.722;2022-11-15T13:32:21;100519.19;;;7.92;93.94
71299;BME280;59083;47.974;21.722;2022-11-15T13:35:25;100519.97;;;7.92;93.77
71299;BME280;59083;47.974;21.722;2022-11-15T13:38:32;100521.50;;;7.95;93.59
71299;BME280;59083;47.974;21.722;2022-11-15T13:41:36;100518.16;;;8.01;93.66
71299;BME280;59083;47.974;21.722;2022-11-15T13:44:59;100510.22;;;8.01;93.93
71299;BME280;59083;47.974;21.722;2022-11-15T13:48:02;100512.38;;;7.97;94.96
71299;BME280;59083;47.974;21.722;2022-11-15T13:51:09;100507.87;;;7.98;95.50
71299;BME280;59083;47.974;21.722;2022-11-15T13:54:22;100510.19;;;7.93;96.50
71299;BME280;59083;47.974;21.722;2022-11-15T14:00:38;100493.31;;;7.85;97.12
71299;BME280;59083;47.974;21.722;2022-11-15T14:03:56;100493.97;;;7.79;97.36
71299;BME280;59083;47.974;21.722;2022-11-15T14:06:59;100497.94;;;7.83;97.96
71299;BME280;59083;47.974;21.722;2022-11-15T14:10:25;100500.59;;;7.83;97.51
71299;BME280;59083;47.974;21.722;2022-11-15T14:13:29;100495.97;;;7.77;97.84
71299;BME280;59083;47.974;21.722;2022-11-15T14:16:36;100492.97;;;7.88;97.54
71299;BME280;59083;47.974;21.722;2022-11-15T14:19:38;100477.03;;;7.88;97.58
71299;BME280;59083;47.974;21.722;2022-11-15T14:22:51;100466.78;;;7.85;97.88
71299;BME280;59083;47.974;21.722;2022-11-15T14:25:55;100456.16;;;7.77;98.49
71299;BME280;59083;47.974;21.722;2022-11-15T14:28:56;100452.19;;;7.73;98.17
71299;BME280;59083;47.974;21.722;2022-11-15T14:32:41;100455.38;;;7.69;98.66
71299;BME280;59083;47.974;21.722;2022-11-15T14:35:44;100458.69;;;7.63;99.34
71299;BME280;59083;47.974;21.722;2022-11-15T14:38:46;100440.44;;;7.60;99.60
71299;BME280;59083;47.974;21.722;2022-11-15T14:41:47;100431.00;;;7.57;99.87
71299;BME280;59083;47.974;21.722;2022-11-15T14:44:49;100427.69;;;7.55;100.00
71299;BME280;59083;47.974;21.722;2022-11-15T14:47:50;100434.00;;;7.46;100.00
71299;BME280;59083;47.974;21.722;2022-11-15T14:50:51;100447.56;;;7.51;100.00
71299;BME280;59083;47.974;21.722;2022-11-15T14:53:52;100447.88;;;7.48;100.00
71299;BME280;59083;47.974;21.722;2022-11-15T14:56:56;100438.59;;;7.52;100.00
71299;BME280;59083;47.974;21.722;2022-11-15T14:59:57;100440.25;;;7.53;100.00
71299;BME280;59083;47.974;21.722;2022-11-15T15:02:58;100433.28;;;7.52;100.00
71299;BME280;59083;47.974;21.722;2022-11-15T15:06:00;100428.00;;;7.52;100.00
71299;BME280;59083;47.974;21.722;2022-11-15T15:09:01;100419.41;;;7.50;100.00
71299;BME280;59083;47.974;21.722;2022-11-15T15:12:03;100401.19;;;7.39;100.00
71299;BME280;59083;47.974;21.722;2022-11-15T15:15:05;100414.75;;;7.44;100.00
71299;BME280;59083;47.974;21.722;2022-11-15T15:18:06;100415.06;;;7.41;100.00
71299;BME280;59083;47.974;21.722;2022-11-15T15:21:28;100402.69;;;7.33;100.00
71299;BME280;59083;47.974;21.722;2022-11-15T15:24:29;100392.38;;;7.30;100.00
71299;BME280;59083;47.974;21.722;2022-11-15T15:27:30;100390.91;;;7.28;100.00
71299;BME280;59083;47.974;21.722;2022-11-15T15:30:32;100398.34;;;7.24;100.00
71299;BME280;59083;47.974;21.722;2022-11-15T15:33:33;100391.56;;;7.30;100.00
71299;BME280;59083;47.974;21.722;2022-11-15T15:36:34;100392.87;;;7.26;100.00
71299;BME280;59083;47.974;21.722;2022-11-15T15:39:35;100382.28;;;7.18;100.00
71299;BME280;59083;47.974;21.722;2022-11-15T15:42:37;100398.88;;;7.28;100.00
71299;BME280;59083;47.974;21.722;2022-11-15T15:45:39;100392.22;;;7.24;100.00
71299;BME280;59083;47.974;21.722;2022-11-15T15:48:41;100386.91;;;7.24;100.00
71299;BME280;59083;47.974;21.722;2022-11-15T15:51:42;100383.63;;;7.22;100.00
71299;BME280;59083;47.974;21.722;2022-11-15T15:54:44;100387.44;;;7.27;100.00
71299;BME280;59083;47.974;21.722;2022-11-15T15:57:46;100379.31;;;7.29;100.00
71299;BME280;59083;47.974;21.722;2022-11-15T16:00:47;100388.91;;;7.22;100.00
71299;BME280;59083;47.974;21.722;2022-11-15T16:03:48;100385.59;;;7.20;100.00
71299;BME280;59083;47.974;21.722;2022-11-15T16:06:50;100387.25;;;7.21;100.00
71299;BME280;59083;47.974;21.722;2022-11-15T16:09:54;100392.38;;;7.14;100.00
71299;BME280;59083;47.974;21.722;2022-11-15T16:13:01;100393.37;;;7.13;100.00
71299;BME280;59083;47.974;21.722;2022-11-15T16:16:02;100393.56;;;7.12;100.00
71299;BME280;59083;47.974;21.722;2022-11-15T16:19:04;100384.25;;;7.07;100.00
71299;BME280;59083;47.974;21.722;2022-11-15T16:22:05;100389.56;;;7.07;100.00
71299;BME280;59083;47.974;21.722;2022-11-15T16:25:07;100387.25;;;7.04;100.00
71299;BME280;59083;47.974;21.722;2022-11-15T16:28:29;100386.59;;;7.02;100.00
71299;BME280;59083;47.974;21.722;2022-11-15T16:31:31;100381.12;;;7.04;100.00
71299;BME280;59083;47.974;21.722;2022-11-15T16:34:32;100377.31;;;7.06;100.00
71299;BME280;59083;47.974;21.722;2022-11-15T16:37:33;100380.78;;;7.07;100.00
71299;BME280;59083;47.974;21.722;2022-11-15T16:40:35;100374.50;;;7.08;100.00
71299;BME280;59083;47.974;21.722;2022-11-15T16:43:36;100374.00;;;7.13;100.00
71299;BME280;59083;47.974;21.722;2022-11-15T16:46:43;100363.41;;;7.13;100.00
71299;BME280;59083;47.974;21.722;2022-11-15T16:49:44;100359.75;;;7.14;100.00
71299;BME280;59083;47.974;21.722;2022-11-15T16:52:45;100354.63;;;7.12;100.00
71299;BME280;59083;47.974;21.722;2022-11-15T16:55:47;100338.91;;;7.11;100.00
71299;BME280;59083;47.974;21.722;2022-11-15T16:58:48;100327.63;;;7.09;100.00
71299;BME280;59083;47.974;21.722;2022-11-15T17:01:50;100331.47;;;7.06;100.00
71299;BME280;59083;47.974;21.722;2022-11-15T17:04:52;100333.91;;;7.07;100.00
71299;BME280;59083;47.974;21.722;2022-11-15T17:07:53;100328.97;;;7.04;100.00
71299;BME280;59083;47.974;21.722;2022-11-15T17:10:55;100325.66;;;7.02;100.00
71299;BME280;59083;47.974;21.722;2022-11-15T17:13:57;100323.16;;;7.01;100.00
71299;BME280;59083;47.974;21.722;2022-11-15T17:16:59;100329.47;;;7.00;100.00
71299;BME280;59083;47.974;21.722;2022-11-15T17:20:00;100329.28;;;7.01;100.00
71299;BME280;59083;47.974;21.722;2022-11-15T17:23:05;100328.63;;;7.07;100.00
71299;BME280;59083;47.974;21.722;2022-11-15T17:26:13;100333.59;;;7.02;100.00
71299;BME280;59083;47.974;21.722;2022-11-15T17:29:14;100328.97;;;7.04;100.00
71299;BME280;59083;47.974;21.722;2022-11-15T17:32:15;100328.63;;;7.07;100.00
71299;BME280;59083;47.974;21.722;2022-11-15T17:35:17;100334.25;;;7.04;100.00
71299;BME280;59083;47.974;21.722;2022-11-15T17:38:18;100321.66;;;7.06;100.00
71299;BME280;59083;47.974;21.722;2022-11-15T17:41:19;100312.72;;;7.07;100.00
71299;BME280;59083;47.974;21.722;2022-11-15T17:44:21;100316.38;;;7.06;100.00
71299;BME280;59083;47.974;21.722;2022-11-15T17:47:22;100309.25;;;7.07;100.00
71299;BME280;59083;47.974;21.722;2022-11-15T17:50:23;100298.84;;;7.05;100.00
71299;BME280;59083;47.974;21.722;2022-11-15T17:53:25;100293.53;;;7.05;100.00
71299;BME280;59083;47.974;21.722;2022-11-15T17:56:28;100293.84;;;7.02;100.00
71299;BME280;59083;47.974;21.722;2022-11-15T17:59:30;100281.28;;;7.04;100.00
71299;BME280;59083;47.974;21.722;2022-11-15T18:02:31;100279.28;;;7.06;100.00
71299;BME280;59083;47.974;21.722;2022-11-15T18:05:33;100272.00;;;7.09;100.00
71299;BME280;59083;47.974;21.722;2022-11-15T18:08:35;100268.66;;;7.06;100.00
71299;BME280;59083;47.974;21.722;2022-11-15T18:11:39;100264.03;;;7.09;100.00
71299;BME280;59083;47.974;21.722;2022-11-15T18:14:41;100274.63;;;7.09;100.00
71299;BME280;59083;47.974;21.722;2022-11-15T18:17:42;100266.38;;;7.12;100.00
71299;BME280;59083;47.974;21.722;2022-11-15T18:20:43;100259.06;;;7.14;100.00